createdAt,value
2019-05-10T00:00:19.338Z,10.30
2019-05-10T00:03:07.619Z,10.36
2019-05-10T00:05:55.717Z,10.35
2019-05-10T00:08:43.595Z,10.40
2019-05-10T00:11:28.125Z,10.42
2019-05-10T00:14:06.010Z,10.46
2019-05-10T00:16:36.270Z,10.53
2019-05-10T00:19:06.611Z,10.61
2019-05-10T00:21:36.923Z,10.66
2019-05-10T00:24:07.561Z,10.63
2019-05-10T00:26:38.384Z,10.63
2019-05-10T00:29:08.694Z,10.62
2019-05-10T00:31:39.089Z,10.61
2019-05-10T00:34:09.456Z,10.60
2019-05-10T00:36:40.213Z,10.53
2019-05-10T00:39:10.516Z,10.55
2019-05-10T00:41:40.826Z,10.61
2019-05-10T00:44:11.073Z,10.58
2019-05-10T00:46:41.640Z,10.60
2019-05-10T00:49:12.551Z,10.58
2019-05-10T00:51:42.882Z,10.51
2019-05-10T00:54:13.140Z,10.48
2019-05-10T00:56:43.436Z,10.42
2019-05-10T00:59:14.039Z,10.41
2019-05-10T01:01:44.380Z,10.35
2019-05-10T01:04:14.742Z,10.31
2019-05-10T01:06:45.036Z,10.33
2019-05-10T01:09:15.295Z,10.30
2019-05-10T01:11:45.580Z,10.24
2019-05-10T01:14:15.958Z,10.22
2019-05-10T01:16:46.237Z,10.19
2019-05-10T01:19:16.763Z,10.17
2019-05-10T01:21:47.096Z,10.09
2019-05-10T01:24:18.735Z,10.06
2019-05-10T01:26:48.957Z,10.00
2019-05-10T01:29:19.240Z,10.01
2019-05-10T01:31:50.523Z,9.97
2019-05-10T01:34:20.791Z,9.94
2019-05-10T01:36:51.066Z,9.91
2019-05-10T01:39:21.331Z,9.87
2019-05-10T01:41:51.630Z,9.82
2019-05-10T01:44:21.837Z,9.83
2019-05-10T01:46:52.135Z,9.86
2019-05-10T01:49:22.493Z,9.89
2019-05-10T01:51:52.716Z,9.96
2019-05-10T01:54:23.318Z,9.96
2019-05-10T01:56:53.674Z,9.95
2019-05-10T01:59:24.325Z,9.92
2019-05-10T02:01:54.538Z,9.89
2019-05-10T02:04:24.816Z,9.88
2019-05-10T02:06:55.389Z,9.85
2019-05-10T02:09:25.651Z,9.82
2019-05-10T02:11:56.268Z,9.82
2019-05-10T02:14:26.560Z,9.79
2019-05-10T02:19:36.839Z,9.85
2019-05-10T02:22:07.049Z,9.78
2019-05-10T02:24:37.277Z,9.77
2019-05-10T02:27:07.482Z,9.74
2019-05-10T02:29:37.696Z,9.75
2019-05-10T02:32:07.876Z,9.74
2019-05-10T02:34:38.171Z,9.72
2019-05-10T02:37:09.422Z,9.71
2019-05-10T02:39:39.931Z,9.73
2019-05-10T02:42:10.113Z,9.73
2019-05-10T02:44:40.321Z,9.75
2019-05-10T02:47:10.538Z,9.80
2019-05-10T02:49:40.739Z,9.79
2019-05-10T02:52:11.252Z,9.77
2019-05-10T02:54:41.654Z,9.77
2019-05-10T02:57:12.936Z,9.77
2019-05-10T02:59:45.250Z,9.75
2019-05-10T03:02:16.778Z,9.76
2019-05-10T03:04:48.121Z,9.78
2019-05-10T03:07:20.482Z,9.83
2019-05-10T03:09:50.976Z,9.81
2019-05-10T03:12:26.671Z,9.76
2019-05-10T03:14:58.384Z,9.73
2019-05-10T03:17:29.298Z,9.74
2019-05-10T03:20:01.675Z,9.71
2019-05-10T03:22:37.214Z,9.67
2019-05-10T03:25:07.659Z,9.70
2019-05-10T03:27:38.247Z,9.71
2019-05-10T03:30:11.117Z,9.77
2019-05-10T03:32:41.287Z,9.81
2019-05-10T03:35:11.486Z,9.75
2019-05-10T03:37:41.960Z,9.74
2019-05-10T03:40:12.166Z,9.80
2019-05-10T03:42:42.349Z,9.85
2019-05-10T03:45:12.637Z,9.89
2019-05-10T03:47:42.886Z,9.91
2019-05-10T03:50:13.521Z,9.95
2019-05-10T03:52:44.111Z,9.94
2019-05-10T03:55:14.683Z,9.95
2019-05-10T03:57:45.425Z,9.96
2019-05-10T04:00:15.728Z,9.92
2019-05-10T04:02:46.273Z,9.93
2019-05-10T04:05:16.582Z,9.89
2019-05-10T04:07:46.845Z,9.89
2019-05-10T04:10:20.722Z,9.90
2019-05-10T04:12:48.985Z,9.97
2019-05-10T04:15:19.196Z,9.94
2019-05-10T04:17:50.340Z,9.92
2019-05-10T04:20:22.742Z,9.98
2019-05-10T04:22:52.932Z,9.98
2019-05-10T04:25:23.491Z,9.97
2019-05-10T04:27:54.123Z,10.01
2019-05-10T04:30:24.758Z,10.02
2019-05-10T04:32:55.386Z,10.08
2019-05-10T04:35:25.952Z,10.07
2019-05-10T04:37:56.114Z,10.08
2019-05-10T04:40:26.799Z,10.14
2019-05-10T04:42:57.041Z,10.23
2019-05-10T04:45:27.289Z,10.34
2019-05-10T04:47:57.817Z,10.35
2019-05-10T04:50:28.184Z,10.40
2019-05-10T04:52:58.365Z,10.51
2019-05-10T04:55:28.634Z,10.57
2019-05-10T04:57:58.875Z,10.64
2019-05-10T05:00:29.195Z,10.74
2019-05-10T05:02:59.405Z,10.84
2019-05-10T05:05:29.961Z,10.90
2019-05-10T05:08:00.139Z,11.03
2019-05-10T05:10:30.402Z,11.05
2019-05-10T05:13:00.696Z,11.13
2019-05-10T05:15:30.974Z,11.08
2019-05-10T05:18:01.272Z,11.11
2019-05-10T05:20:31.481Z,11.15
2019-05-10T05:23:01.664Z,11.24
2019-05-10T05:25:35.360Z,11.34
2019-05-10T05:28:07.830Z,11.50
2019-05-10T05:30:38.911Z,11.72
2019-05-10T05:33:09.522Z,11.83
2019-05-10T05:35:39.745Z,11.93
2019-05-10T05:38:11.412Z,11.91
2019-05-10T05:40:41.631Z,11.80
2019-05-10T05:43:12.165Z,11.81
2019-05-10T05:45:42.687Z,11.91
2019-05-10T05:48:16.131Z,11.97
2019-05-10T05:50:44.799Z,12.04
2019-05-10T05:53:14.934Z,12.06
2019-05-10T05:55:45.186Z,12.15
2019-05-10T05:58:25.724Z,12.12
2019-05-10T06:00:47.963Z,12.20
2019-05-10T06:03:27.120Z,12.25
2019-05-10T06:05:50.776Z,12.39
2019-05-10T06:08:24.622Z,12.68
2019-05-10T06:10:57.872Z,12.94
2019-05-10T06:13:30.353Z,13.26
2019-05-10T06:16:00.071Z,13.44
2019-05-10T06:18:29.625Z,13.58
2019-05-10T06:20:59.849Z,13.52
2019-05-10T06:23:35.346Z,13.34
2019-05-10T06:26:02.323Z,13.54
2019-05-10T06:28:57.540Z,13.63
2019-05-10T06:31:04.435Z,13.61
2019-05-10T06:33:34.616Z,13.76
2019-05-10T06:36:04.849Z,13.85
2019-05-10T06:38:35.045Z,13.87
2019-05-10T06:41:09.994Z,14.02
2019-05-10T06:43:37.156Z,14.03
2019-05-10T06:46:07.349Z,14.26
2019-05-10T06:48:37.889Z,14.29
2019-05-10T06:51:09.757Z,14.33
2019-05-10T06:53:41.610Z,14.40
2019-05-10T06:56:12.230Z,14.33
2019-05-10T06:58:42.449Z,14.46
2019-05-10T07:01:12.632Z,14.46
2019-05-10T07:03:43.138Z,14.58
2019-05-10T07:06:13.310Z,14.55
2019-05-10T07:08:45.784Z,14.86
2019-05-10T07:11:15.427Z,15.04
2019-05-10T07:13:47.860Z,15.30
2019-05-10T07:16:24.276Z,15.10
2019-05-10T07:18:54.959Z,15.13
2019-05-10T07:21:22.369Z,15.03
2019-05-10T07:23:52.677Z,15.28
2019-05-10T07:26:26.357Z,15.50
2019-05-10T07:28:57.394Z,15.75
2019-05-10T07:31:26.683Z,15.74
2019-05-10T07:33:56.981Z,15.88
2019-05-10T07:36:30.724Z,15.98
2019-05-10T07:39:02.699Z,16.19
2019-05-10T07:41:33.470Z,16.28
2019-05-10T07:44:07.728Z,16.41
2019-05-10T07:46:39.900Z,15.92
2019-05-10T07:49:08.301Z,15.87
2019-05-10T07:51:38.862Z,16.15
2019-05-10T07:54:09.427Z,16.21
2019-05-10T07:56:45.559Z,16.24
2019-05-10T07:59:16.259Z,16.19
2019-05-10T08:01:48.870Z,16.19
2019-05-10T08:04:19.887Z,16.42
2019-05-10T08:06:51.894Z,16.24
2019-05-10T08:09:20.423Z,15.96
2019-05-10T08:11:54.275Z,15.94
2019-05-10T08:14:25.263Z,16.15
2019-05-10T08:16:58.546Z,16.31
2019-05-10T08:19:26.355Z,16.38
2019-05-10T08:22:01.896Z,16.38
2019-05-10T08:24:28.579Z,16.08
2019-05-10T08:27:09.889Z,15.90
2019-05-10T08:29:32.910Z,16.15
2019-05-10T08:32:03.053Z,16.13
2019-05-10T08:34:35.595Z,16.54
2019-05-10T08:37:05.682Z,16.74
2019-05-10T08:39:45.608Z,16.87
2019-05-10T08:42:28.498Z,17.10
2019-05-10T08:44:42.758Z,16.88
2019-05-10T08:47:22.398Z,16.66
2019-05-10T08:49:57.479Z,16.86
2019-05-10T08:52:19.283Z,16.61
2019-05-10T08:54:54.914Z,16.87
2019-05-10T09:00:12.957Z,17.30
2019-05-10T09:02:43.734Z,17.76
2019-05-10T09:05:14.572Z,18.16
2019-05-10T09:07:45.531Z,18.19
2019-05-10T09:10:16.317Z,18.39
2019-05-10T09:12:57.574Z,17.55
2019-05-10T09:15:22.297Z,17.58
2019-05-10T09:17:52.824Z,17.37
2019-05-10T09:20:26.512Z,16.92
2019-05-10T09:22:55.383Z,16.49
2019-05-10T09:25:29.551Z,16.64
2019-05-10T09:28:02.392Z,16.86
2019-05-10T09:30:35.476Z,16.95
2019-05-10T09:33:13.443Z,17.30
2019-05-10T09:35:44.138Z,17.71
2019-05-10T09:38:12.634Z,18.34
2019-05-10T09:40:51.320Z,18.43
2019-05-10T09:43:15.879Z,18.57
2019-05-10T09:45:46.716Z,19.45
2019-05-10T09:48:17.446Z,20.45
2019-05-10T09:50:49.215Z,21.01
2019-05-10T09:53:25.723Z,20.56
2019-05-10T09:56:00.151Z,20.51
2019-05-10T09:58:24.689Z,20.65
2019-05-10T10:01:11.101Z,19.24
2019-05-10T10:03:30.320Z,18.89
2019-05-10T10:06:07.430Z,19.13
2019-05-10T10:08:34.127Z,18.45
2019-05-10T10:11:12.641Z,17.97
2019-05-10T10:13:43.352Z,17.76
2019-05-10T10:16:14.572Z,17.62
2019-05-10T10:18:41.860Z,18.22
2019-05-10T10:21:13.336Z,19.13
2019-05-10T10:23:44.814Z,19.42
2019-05-10T10:26:20.806Z,19.49
2019-05-10T10:28:49.668Z,19.28
2019-05-10T10:31:29.055Z,18.97
2019-05-10T10:33:58.156Z,19.04
2019-05-10T10:36:27.437Z,20.04
2019-05-10T10:38:57.746Z,19.77
2019-05-10T10:41:31.722Z,19.78
2019-05-10T10:44:00.302Z,20.55
2019-05-10T10:46:34.405Z,20.97
2019-05-10T10:49:05.483Z,22.18
2019-05-10T10:51:37.983Z,23.95
2019-05-10T10:54:09.106Z,24.34
2019-05-10T10:56:39.622Z,23.10
2019-05-10T10:59:10.326Z,22.18
2019-05-10T11:01:49.895Z,20.95
2019-05-10T11:04:16.448Z,20.35
2019-05-10T11:06:47.113Z,20.30
2019-05-10T11:09:17.840Z,19.78
2019-05-10T11:11:48.288Z,19.23
2019-05-10T11:14:20.601Z,19.41
2019-05-10T11:16:55.426Z,19.49
2019-05-10T11:19:23.188Z,19.52
2019-05-10T11:21:53.671Z,19.59
2019-05-10T11:24:24.204Z,20.16
2019-05-10T11:26:55.001Z,20.73
2019-05-10T11:29:28.055Z,20.57
2019-05-10T11:32:12.164Z,20.95
2019-05-10T11:34:37.593Z,20.88
2019-05-10T11:37:04.251Z,20.67
2019-05-10T11:39:41.826Z,20.11
2019-05-10T11:42:07.547Z,20.24
2019-05-10T11:44:41.436Z,20.15
2019-05-10T11:47:23.408Z,19.93
2019-05-10T11:49:43.728Z,20.20
2019-05-10T11:52:14.701Z,20.20
2019-05-10T11:54:45.312Z,20.47
2019-05-10T11:57:15.829Z,21.32
2019-05-10T11:59:47.167Z,21.64
2019-05-10T12:02:35.356Z,21.20
2019-05-10T12:04:52.751Z,20.47
2019-05-10T12:07:24.566Z,19.88
2019-05-10T12:10:03.437Z,19.20
2019-05-10T12:12:45.262Z,19.23
2019-05-10T12:15:04.071Z,19.29
2019-05-10T12:17:33.194Z,20.05
2019-05-10T12:20:05.151Z,20.27
2019-05-10T12:22:46.379Z,21.44
2019-05-10T12:26:05.804Z,23.50
2019-05-10T12:27:47.309Z,22.70
2019-05-10T12:30:16.106Z,22.77
2019-05-10T12:32:56.116Z,22.39
2019-05-10T12:35:21.283Z,22.72
2019-05-10T12:37:53.994Z,24.02
2019-05-10T12:40:24.402Z,24.67
2019-05-10T12:42:54.936Z,23.93
2019-05-10T12:45:25.140Z,23.45
2019-05-10T12:47:55.423Z,22.97
2019-05-10T12:50:25.733Z,22.50
2019-05-10T12:53:03.327Z,21.70
2019-05-10T12:55:29.412Z,21.04
2019-05-10T12:57:59.632Z,20.64
2019-05-10T13:00:31.019Z,20.51
2019-05-10T13:03:12.154Z,20.66
2019-05-10T13:05:34.244Z,20.56
2019-05-10T13:08:04.579Z,19.78
2019-05-10T13:10:37.228Z,19.58
2019-05-10T13:13:06.766Z,19.54
2019-05-10T13:15:37.053Z,19.32
2019-05-10T13:18:07.302Z,19.48
2019-05-10T13:20:38.793Z,20.24
2019-05-10T13:23:09.858Z,20.35
2019-05-10T13:25:41.052Z,21.99
2019-05-10T13:28:11.934Z,23.82
2019-05-10T13:30:42.653Z,25.19
2019-05-10T13:33:27.899Z,29.30
2019-05-10T13:35:44.781Z,27.39
2019-05-10T13:38:15.129Z,25.57
2019-05-10T13:40:47.743Z,23.28
2019-05-10T13:43:26.073Z,21.51
2019-05-10T13:45:50.142Z,20.57
2019-05-10T13:48:20.335Z,20.20
2019-05-10T13:50:50.542Z,19.94
2019-05-10T13:53:23.169Z,19.93
2019-05-10T13:55:52.776Z,19.47
2019-05-10T13:58:22.972Z,19.20
2019-05-10T14:00:53.254Z,19.23
2019-05-10T14:03:23.465Z,19.30
2019-05-10T14:05:53.964Z,19.73
2019-05-10T14:08:25.179Z,20.19
2019-05-10T14:11:01.410Z,21.92
2019-05-10T14:13:28.669Z,24.75
2019-05-10T14:15:58.893Z,23.75
2019-05-10T14:18:29.234Z,23.84
2019-05-10T14:20:59.765Z,26.13
2019-05-10T14:23:35.112Z,25.15
2019-05-10T14:26:02.820Z,26.04
2019-05-10T14:28:33.028Z,28.54
2019-05-10T14:31:03.209Z,31.20
2019-05-10T14:33:34.482Z,28.28
2019-05-10T14:36:04.664Z,25.56
2019-05-10T14:38:34.882Z,23.70
2019-05-10T14:41:10.969Z,22.76
2019-05-10T14:43:36.964Z,22.25
2019-05-10T14:46:13.591Z,21.99
2019-05-10T14:48:39.850Z,21.57
2019-05-10T14:51:11.663Z,21.63
2019-05-10T14:53:42.275Z,21.29
2019-05-10T14:56:14.053Z,21.01
2019-05-10T14:58:44.358Z,20.40
2019-05-10T15:01:14.962Z,20.52
2019-05-10T15:03:47.247Z,21.07
2019-05-10T15:06:17.470Z,23.76
2019-05-10T15:08:47.692Z,22.84
2019-05-10T15:11:17.954Z,22.03
2019-05-10T15:13:48.172Z,21.78
2019-05-10T15:16:26.518Z,21.35
2019-05-10T15:18:50.536Z,21.58
2019-05-10T15:21:20.761Z,21.43
2019-05-10T15:23:55.227Z,21.41
2019-05-10T15:26:22.965Z,21.23
2019-05-10T15:28:53.149Z,21.17
2019-05-10T15:31:23.805Z,20.80
2019-05-10T15:33:55.240Z,20.73
2019-05-10T15:36:29.582Z,20.12
2019-05-10T15:38:57.439Z,19.93
2019-05-10T15:41:27.799Z,19.93
2019-05-10T15:43:57.983Z,20.56
2019-05-10T15:46:36.521Z,25.97
2019-05-10T15:49:00.311Z,30.52
2019-05-10T15:51:36.236Z,32.20
2019-05-10T15:54:04.948Z,31.78
2019-05-10T15:56:35.716Z,33.52
2019-05-10T15:59:06.874Z,33.38
2019-05-10T16:01:37.709Z,33.23
2019-05-10T16:04:08.351Z,33.98
2019-05-10T16:06:39.439Z,31.29
2019-05-10T16:09:17.411Z,30.74
2019-05-10T16:11:42.486Z,32.25
2019-05-10T16:14:12.677Z,30.60
2019-05-10T16:16:42.911Z,30.97
2019-05-10T16:19:18.357Z,31.20
2019-05-10T16:21:46.685Z,32.70
2019-05-10T16:24:25.180Z,34.18
2019-05-10T16:26:49.263Z,34.22
2019-05-10T16:29:20.212Z,33.11
2019-05-10T16:31:50.729Z,32.98
2019-05-10T16:34:26.421Z,33.56
2019-05-10T16:36:52.903Z,33.95
2019-05-10T16:39:23.097Z,33.52
2019-05-10T16:41:53.311Z,29.29
2019-05-10T16:44:23.543Z,26.22
2019-05-10T16:46:53.828Z,24.86
2019-05-10T16:49:24.009Z,24.43
2019-05-10T16:51:54.376Z,24.08
2019-05-10T16:54:27.236Z,23.15
2019-05-10T16:57:01.330Z,22.84
2019-05-10T16:59:31.217Z,21.91
2019-05-10T17:02:04.569Z,21.62
2019-05-10T17:04:52.880Z,21.14
2019-05-10T17:07:23.190Z,20.91
2019-05-10T17:09:54.750Z,20.79
2019-05-10T17:12:27.724Z,20.36
2019-05-10T17:15:02.714Z,20.28
2019-05-10T17:17:31.282Z,20.01
2019-05-10T17:20:07.535Z,19.65
2019-05-10T17:22:34.015Z,19.21
2019-05-10T17:25:05.385Z,19.06
2019-05-10T17:27:35.802Z,18.94
2019-05-10T17:30:06.451Z,19.02
2019-05-10T17:32:36.654Z,19.22
2019-05-10T17:35:07.325Z,19.26
2019-05-10T17:37:37.695Z,19.24
2019-05-10T17:40:12.069Z,19.21
2019-05-10T17:42:43.106Z,19.15
2019-05-10T17:45:13.771Z,19.06
2019-05-10T17:47:44.423Z,18.87
2019-05-10T17:50:14.961Z,18.58
2019-05-10T17:52:45.253Z,18.36
2019-05-10T17:55:16.837Z,18.07
2019-05-10T17:57:48.598Z,17.83
2019-05-10T18:00:19.341Z,17.66
2019-05-10T18:02:49.565Z,17.51
2019-05-10T18:05:20.153Z,17.58
2019-05-10T18:07:51.831Z,17.57
2019-05-10T18:10:22.379Z,17.49
2019-05-10T18:12:57.422Z,17.35
2019-05-10T18:15:27.783Z,17.20
2019-05-10T18:18:02.783Z,16.97
2019-05-10T18:20:40.964Z,16.85
2019-05-10T18:23:03.102Z,16.64
2019-05-10T18:25:34.391Z,16.49
2019-05-10T18:28:04.811Z,16.31
2019-05-10T18:30:35.017Z,16.23
2019-05-10T18:33:06.843Z,16.18
2019-05-10T18:35:37.197Z,16.10
2019-05-10T18:38:07.407Z,16.03
2019-05-10T18:40:38.220Z,16.00
2019-05-10T18:43:08.714Z,15.91
2019-05-10T18:45:38.939Z,15.83
2019-05-10T18:48:09.662Z,15.75
2019-05-10T18:50:45.225Z,15.72
2019-05-10T18:53:11.764Z,15.64
2019-05-10T18:55:43.748Z,15.68
2019-05-10T18:58:14.010Z,15.70
2019-05-10T19:00:44.650Z,15.59
2019-05-10T19:03:15.721Z,15.31
2019-05-10T19:05:46.273Z,15.14
2019-05-10T19:08:16.801Z,14.99
2019-05-10T19:10:47.290Z,14.87
2019-05-10T19:13:18.266Z,14.69
2019-05-10T19:15:52.895Z,14.55
2019-05-10T19:18:23.377Z,14.43
2019-05-10T19:20:54.841Z,14.37
2019-05-10T19:23:24.942Z,14.36
2019-05-10T19:25:55.537Z,14.43
2019-05-10T19:28:28.398Z,14.44
2019-05-10T19:30:58.576Z,14.42
2019-05-10T19:33:36.362Z,14.44
2019-05-10T19:36:02.426Z,14.50
2019-05-10T19:38:32.656Z,14.56
2019-05-10T19:41:02.879Z,14.57
2019-05-10T19:43:33.537Z,14.59
2019-05-10T19:46:03.782Z,14.60
2019-05-10T19:48:36.906Z,14.56
2019-05-10T19:51:09.451Z,14.57
2019-05-10T19:53:42.406Z,14.63
2019-05-10T19:56:11.957Z,14.62
2019-05-10T19:58:43.002Z,14.64
2019-05-10T20:01:13.917Z,14.70
2019-05-10T20:03:44.153Z,14.67
2019-05-10T20:06:14.343Z,14.62
2019-05-10T20:08:44.887Z,14.64
2019-05-10T20:11:16.196Z,14.61
2019-05-10T20:13:46.449Z,14.68
2019-05-10T20:16:16.676Z,14.66
2019-05-10T20:18:47.255Z,14.66
2019-05-10T20:21:17.487Z,14.63
2019-05-10T20:23:48.028Z,14.61
2019-05-10T20:26:18.239Z,14.65
2019-05-10T20:28:48.459Z,14.68
2019-05-10T20:31:19.033Z,14.67
2019-05-10T20:33:49.566Z,14.71
2019-05-10T20:36:19.790Z,14.79
2019-05-10T20:38:50.592Z,14.77
2019-05-10T20:41:20.957Z,14.77
2019-05-10T20:43:51.492Z,14.80
2019-05-10T20:46:22.706Z,14.80
2019-05-10T20:48:52.871Z,14.77
2019-05-10T20:51:23.138Z,14.72
2019-05-10T20:53:53.662Z,14.72
2019-05-10T20:56:24.345Z,14.71
2019-05-10T20:58:54.630Z,14.78
2019-05-10T21:01:24.922Z,14.74
2019-05-10T21:03:55.404Z,14.65
2019-05-10T21:06:27.738Z,14.49
2019-05-10T21:08:58.404Z,14.40
2019-05-10T21:11:30.193Z,14.24
2019-05-10T21:14:00.433Z,14.16
2019-05-10T21:16:30.714Z,14.26
2019-05-10T21:19:01.242Z,14.34
2019-05-10T21:21:31.449Z,14.42
2019-05-10T21:24:01.987Z,14.49
2019-05-10T21:26:32.250Z,14.49
2019-05-10T21:29:02.456Z,14.48
2019-05-10T21:31:33.870Z,14.42
2019-05-10T21:34:09.929Z,14.41
2019-05-10T21:36:36.268Z,14.43
2019-05-10T21:39:08.135Z,14.49
2019-05-10T21:41:38.359Z,14.51
2019-05-10T21:44:09.006Z,14.53
2019-05-10T21:46:39.926Z,14.43
2019-05-10T21:49:10.640Z,14.33
2019-05-10T21:51:40.886Z,14.20
2019-05-10T21:54:12.240Z,14.11
2019-05-10T21:56:42.897Z,14.08
2019-05-10T21:59:13.500Z,14.13
2019-05-10T22:01:44.127Z,14.14
2019-05-10T22:04:14.369Z,14.12
2019-05-10T22:06:44.767Z,14.07
2019-05-10T22:09:15.000Z,14.06
2019-05-10T22:11:45.559Z,14.00
2019-05-10T22:14:15.775Z,13.99
2019-05-10T22:16:46.019Z,14.06
2019-05-10T22:19:16.306Z,14.04
2019-05-10T22:21:46.879Z,14.02
2019-05-10T22:24:17.502Z,14.01
2019-05-10T22:26:47.867Z,14.02
2019-05-10T22:29:18.157Z,14.11
2019-05-10T22:31:48.818Z,14.18
2019-05-10T22:34:19.044Z,14.19
2019-05-10T22:36:49.344Z,14.20
2019-05-10T22:39:20.269Z,14.18
2019-05-10T22:41:52.964Z,14.19
2019-05-10T22:44:22.503Z,14.31
2019-05-10T22:46:52.768Z,14.38
2019-05-10T22:49:23.123Z,14.44
2019-05-10T22:51:53.435Z,14.42
2019-05-10T22:54:25.032Z,14.36
2019-05-10T22:56:55.319Z,14.27
2019-05-10T22:59:25.599Z,14.16
2019-05-10T23:01:55.863Z,14.22
2019-05-10T23:04:26.223Z,14.20
2019-05-10T23:06:56.541Z,14.28
2019-05-10T23:09:26.767Z,14.31
2019-05-10T23:11:57.743Z,14.32
2019-05-10T23:14:28.147Z,14.27
2019-05-10T23:16:58.401Z,14.28
2019-05-10T23:19:28.798Z,14.30
2019-05-10T23:21:59.122Z,14.36
2019-05-10T23:24:41.989Z,14.45
2019-05-10T23:27:12.236Z,14.42
2019-05-10T23:29:42.561Z,14.47
2019-05-10T23:32:12.839Z,14.58
2019-05-10T23:34:43.476Z,14.62
2019-05-10T23:37:15.200Z,14.53
2019-05-10T23:39:45.854Z,14.47
2019-05-10T23:42:16.535Z,14.38
2019-05-10T23:44:47.332Z,14.24
2019-05-10T23:47:17.670Z,14.08
2019-05-10T23:49:47.912Z,14.16
2019-05-10T23:52:18.187Z,14.25
2019-05-10T23:54:48.506Z,14.29
2019-05-10T23:57:19.154Z,14.43
2019-05-10T23:59:49.578Z,14.55
